Fort Good Hope, Canada
Current Conditions -  °F | °C
As of 1:45 AM on Saturday 25 Oct 2014 (Local Time) from CYVQ Reporting Station
Light Snow Light Snow  
Wind Chill: 16°   Ceiling: 1500
Heat Index: 16°   Visibility: 10mi
Dew Point: 14°   Wind: 3mph
Humidity: 93%   Direction: 50°NE
Pressure: 29.94"   Gusts: NA
Location:  66.27°N, 128.63°W
Report Text: CYVQ 250745Z 05003KT 10SM -SN OVC015 M09/M10 A2994 RMK SC8 SLP144
Loading
Personal Weather Stations






























Interactive Weather Map
Tropical Storm Tracking
New forecast layout! Learn more

10-Day Weather Forecast

Advertisements
Track Severe Weather on mobile